createdAt,value
2022-09-12T00:13:10.526Z,9.89
2022-09-12T00:28:52.613Z,6.7
2022-09-12T00:44:35.546Z,9.2
2022-09-12T01:00:17.832Z,9.2
2022-09-12T01:16:00.175Z,7.6
2022-09-12T01:31:42.815Z,8.7
2022-09-12T01:47:25.410Z,12.5
2022-09-12T02:03:08.108Z,9
2022-09-12T02:18:50.674Z,7.7
2022-09-12T02:34:33.450Z,8.1
2022-09-12T02:50:15.771Z,7.1
2022-09-12T03:05:58.788Z,10.4
2022-09-12T03:21:41.264Z,12
2022-09-12T03:37:23.365Z,12.5
2022-09-12T03:53:05.561Z,13.6
2022-09-12T04:08:47.717Z,11.8
2022-09-12T04:24:30.371Z,11.7
2022-09-12T04:40:12.779Z,11.5
2022-09-12T04:55:55.285Z,13.4
2022-09-12T05:11:37.653Z,14.3
2022-09-12T05:27:19.718Z,16.2
2022-09-12T05:43:02.727Z,18.29
2022-09-12T05:58:45.388Z,17.9
2022-09-12T06:14:27.759Z,19.2
2022-09-12T06:30:10.838Z,21
2022-09-12T06:45:52.947Z,18.6
2022-09-12T07:01:35.975Z,18.5
2022-09-12T07:17:18.522Z,15
2022-09-12T07:33:00.973Z,15
2022-09-12T07:48:43.488Z,10.3
2022-09-12T08:04:26.179Z,9.5
2022-09-12T08:20:08.709Z,3.7
2022-09-12T08:35:50.849Z,2.09
2022-09-12T08:51:33.689Z,1.9
2022-09-12T08:52:20.901Z,1.9
2022-09-12T09:08:03.465Z,1.3
2022-09-12T09:23:45.468Z,1.7
2022-09-12T09:39:27.486Z,1.4
2022-09-12T09:55:10.144Z,1.3
2022-09-12T10:10:52.582Z,1.1
2022-09-12T10:26:35.006Z,0.9
2022-09-12T10:42:17.182Z,1.3
2022-09-12T10:57:59.570Z,0.8
2022-09-12T11:13:42.245Z,0.8
2022-09-12T11:29:24.215Z,0.9
2022-09-12T11:45:06.381Z,0.7
2022-09-12T12:00:49.022Z,0.6
2022-09-12T12:16:31.594Z,0.6
2022-09-12T12:32:13.819Z,0.8
2022-09-12T12:47:56.742Z,0.9
2022-09-12T13:03:38.771Z,0.9
2022-09-12T13:19:21.567Z,0.8
2022-09-12T13:35:04.171Z,0.7
2022-09-12T13:50:46.811Z,0.6
2022-09-12T14:06:28.877Z,0.7
2022-09-12T14:22:11.150Z,0.6
2022-09-12T14:37:53.351Z,0.9
2022-09-12T14:53:36.040Z,0.9
2022-09-12T15:09:18.461Z,0.8
2022-09-12T15:25:01.014Z,0.9
2022-09-12T15:40:43.095Z,0.9
2022-09-12T15:56:25.473Z,2.2
2022-09-12T16:12:07.883Z,1.2
2022-09-12T16:27:50.020Z,1
2022-09-12T16:43:32.569Z,1.2
2022-09-12T16:59:14.962Z,2.2
2022-09-12T17:14:57.492Z,1.8
2022-09-12T17:30:39.724Z,2.3
2022-09-12T18:02:04.693Z,2.3
2022-09-12T18:17:46.853Z,2.5
2022-09-12T18:33:29.567Z,4
2022-09-12T18:49:12.146Z,2.9
2022-09-12T19:04:54.989Z,4.9
2022-09-12T19:20:37.251Z,4.3
2022-09-12T19:36:19.274Z,4.4
2022-09-12T19:52:02.058Z,4.69
2022-09-12T20:07:44.631Z,4.9
2022-09-12T20:23:27.527Z,4.9
2022-09-12T20:39:09.586Z,4.69
2022-09-12T20:54:52.554Z,4.8
2022-09-12T21:10:35.583Z,5.5
2022-09-12T21:26:18.285Z,12.6
2022-09-12T21:42:01.167Z,6.1
2022-09-12T21:57:43.398Z,6.4
2022-09-12T22:13:25.493Z,6.6
2022-09-12T22:29:08.385Z,6.7
2022-09-12T22:44:51.324Z,6
2022-09-12T23:00:33.681Z,7.1
2022-09-12T23:16:16.294Z,6.1
2022-09-12T23:31:59.308Z,5.8
2022-09-12T23:47:41.852Z,6.3
